sensor_id;sensor_type;location;lat;lon;timestamp;pressure;altitude;pressure_sealevel;temperature;humidity
44103;BME280;29769;42.178;24.742;2023-09-19T00:01:57;100043.81;;;15.80;100.00
44103;BME280;29769;42.178;24.742;2023-09-19T00:04:43;100045.59;;;15.80;100.00
44103;BME280;29769;42.178;24.742;2023-09-19T00:07:27;100048.34;;;15.77;100.00
44103;BME280;29769;42.178;24.742;2023-09-19T00:10:12;100043.13;;;15.74;100.00
44103;BME280;29769;42.178;24.742;2023-09-19T00:12:59;100033.34;;;15.76;100.00
44103;BME280;29769;42.178;24.742;2023-09-19T00:15:45;100042.84;;;15.83;100.00
44103;BME280;29769;42.178;24.742;2023-09-19T00:18:33;100041.97;;;15.82;100.00
44103;BME280;29769;42.178;24.742;2023-09-19T00:21:19;100041.09;;;15.82;100.00
44103;BME280;29769;42.178;24.742;2023-09-19T00:24:04;100041.16;;;15.80;100.00
44103;BME280;29769;42.178;24.742;2023-09-19T00:26:50;100037.78;;;15.75;100.00
44103;BME280;29769;42.178;24.742;2023-09-19T00:29:35;100038.00;;;15.68;100.00
44103;BME280;29769;42.178;24.742;2023-09-19T00:32:19;100040.03;;;15.60;100.00
44103;BME280;29769;42.178;24.742;2023-09-19T00:35:04;100036.63;;;15.54;100.00
44103;BME280;29769;42.178;24.742;2023-09-19T00:37:50;100033.22;;;15.49;100.00
44103;BME280;29769;42.178;24.742;2023-09-19T00:40:35;100034.31;;;15.44;100.00
44103;BME280;29769;42.178;24.742;2023-09-19T00:43:21;100032.72;;;15.37;100.00
44103;BME280;29769;42.178;24.742;2023-09-19T00:46:08;100042.81;;;15.24;100.00
44103;BME280;29769;42.178;24.742;2023-09-19T00:48:52;100027.41;;;15.07;100.00
44103;BME280;29769;42.178;24.742;2023-09-19T00:51:37;100029.25;;;15.04;100.00
44103;BME280;29769;42.178;24.742;2023-09-19T00:54:22;100032.91;;;15.00;100.00
44103;BME280;29769;42.178;24.742;2023-09-19T00:57:07;100033.97;;;14.94;100.00
44103;BME280;29769;42.178;24.742;2023-09-19T00:59:54;100034.81;;;14.95;100.00
44103;BME280;29769;42.178;24.742;2023-09-19T01:02:39;100033.16;;;14.91;100.00
44103;BME280;29769;42.178;24.742;2023-09-19T01:05:24;100033.28;;;14.86;100.00
44103;BME280;29769;42.178;24.742;2023-09-19T01:08:10;100027.28;;;14.80;100.00
44103;BME280;29769;42.178;24.742;2023-09-19T01:10:58;100039.78;;;14.75;100.00
44103;BME280;29769;42.178;24.742;2023-09-19T01:22:53;100027.97;;;14.54;100.00
44103;BME280;29769;42.178;24.742;2023-09-19T01:25:52;100026.38;;;14.48;100.00
44103;BME280;29769;42.178;24.742;2023-09-19T01:31:59;100022.06;;;14.44;100.00
44103;BME280;29769;42.178;24.742;2023-09-19T01:34:52;100021.22;;;14.42;100.00
44103;BME280;29769;42.178;24.742;2023-09-19T01:37:38;100027.47;;;14.40;100.00
44103;BME280;29769;42.178;24.742;2023-09-19T01:40:22;100023.16;;;14.34;100.00
44103;BME280;29769;42.178;24.742;2023-09-19T01:49:03;100027.19;;;14.13;100.00
44103;BME280;29769;42.178;24.742;2023-09-19T01:52:05;100018.38;;;14.14;100.00
44103;BME280;29769;42.178;24.742;2023-09-19T01:54:56;100013.84;;;14.19;100.00
44103;BME280;29769;42.178;24.742;2023-09-19T02:00:49;100024.22;;;14.27;100.00
44103;BME280;29769;42.178;24.742;2023-09-19T02:03:37;100022.50;;;14.26;100.00
44103;BME280;29769;42.178;24.742;2023-09-19T02:06:22;100025.94;;;14.30;100.00
44103;BME280;29769;42.178;24.742;2023-09-19T02:09:10;100028.47;;;14.34;100.00
44103;BME280;29769;42.178;24.742;2023-09-19T02:11:54;100029.44;;;14.30;100.00
44103;BME280;29769;42.178;24.742;2023-09-19T02:14:41;100020.81;;;14.22;100.00
44103;BME280;29769;42.178;24.742;2023-09-19T02:17:25;100021.03;;;14.13;100.00
44103;BME280;29769;42.178;24.742;2023-09-19T02:20:11;100015.91;;;14.07;100.00
44103;BME280;29769;42.178;24.742;2023-09-19T02:22:58;100014.16;;;14.06;100.00
44103;BME280;29769;42.178;24.742;2023-09-19T02:25:51;100006.34;;;14.01;100.00
44103;BME280;29769;42.178;24.742;2023-09-19T02:28:35;100011.78;;;13.95;100.00
44103;BME280;29769;42.178;24.742;2023-09-19T02:31:20;100008.44;;;13.89;100.00
44103;BME280;29769;42.178;24.742;2023-09-19T02:34:04;100006.09;;;13.75;100.00
44103;BME280;29769;42.178;24.742;2023-09-19T02:36:50;100016.91;;;13.64;100.00
44103;BME280;29769;42.178;24.742;2023-09-19T02:39:37;100017.19;;;13.52;100.00
44103;BME280;29769;42.178;24.742;2023-09-19T02:42:22;100004.28;;;13.39;100.00
44103;BME280;29769;42.178;24.742;2023-09-19T02:45:07;100018.59;;;13.27;100.00
44103;BME280;29769;42.178;24.742;2023-09-19T02:47:52;100016.16;;;13.18;100.00
44103;BME280;29769;42.178;24.742;2023-09-19T02:50:37;100008.38;;;13.12;100.00
44103;BME280;29769;42.178;24.742;2023-09-19T02:53:22;100013.66;;;13.10;100.00
44103;BME280;29769;42.178;24.742;2023-09-19T02:56:06;100012.88;;;13.05;100.00
44103;BME280;29769;42.178;24.742;2023-09-19T02:58:51;100014.81;;;12.96;100.00
44103;BME280;29769;42.178;24.742;2023-09-19T03:01:36;100012.34;;;12.88;100.00
44103;BME280;29769;42.178;24.742;2023-09-19T03:04:24;100013.31;;;12.84;100.00
44103;BME280;29769;42.178;24.742;2023-09-19T03:07:10;100008.97;;;12.80;100.00
44103;BME280;29769;42.178;24.742;2023-09-19T03:09:55;100014.38;;;12.74;100.00
44103;BME280;29769;42.178;24.742;2023-09-19T03:12:40;100012.69;;;12.71;100.00
44103;BME280;29769;42.178;24.742;2023-09-19T03:15:25;100009.09;;;12.74;100.00
44103;BME280;29769;42.178;24.742;2023-09-19T03:18:11;100009.06;;;12.75;100.00
44103;BME280;29769;42.178;24.742;2023-09-19T03:20:57;100015.34;;;12.70;100.00
44103;BME280;29769;42.178;24.742;2023-09-19T03:23:45;100006.63;;;12.65;100.00
44103;BME280;29769;42.178;24.742;2023-09-19T03:26:30;100008.44;;;12.63;100.00
44103;BME280;29769;42.178;24.742;2023-09-19T03:29:15;100001.28;;;12.68;100.00
44103;BME280;29769;42.178;24.742;2023-09-19T03:32:02;100007.56;;;12.62;100.00
44103;BME280;29769;42.178;24.742;2023-09-19T03:34:48;100005.84;;;12.60;100.00
44103;BME280;29769;42.178;24.742;2023-09-19T03:37:34;100004.97;;;12.59;100.00
44103;BME280;29769;42.178;24.742;2023-09-19T03:40:20;100003.31;;;12.54;100.00
44103;BME280;29769;42.178;24.742;2023-09-19T03:43:07;100002.56;;;12.45;100.00
44103;BME280;29769;42.178;24.742;2023-09-19T03:45:52;100004.50;;;12.36;100.00
44103;BME280;29769;42.178;24.742;2023-09-19T03:48:40;100006.41;;;12.29;100.00
44103;BME280;29769;42.178;24.742;2023-09-19T03:51:24;99996.88;;;12.19;100.00
44103;BME280;29769;42.178;24.742;2023-09-19T03:54:09;100011.75;;;12.25;100.00
44103;BME280;29769;42.178;24.742;2023-09-19T03:56:53;100008.31;;;12.20;100.00
44103;BME280;29769;42.178;24.742;2023-09-19T03:59:38;100013.75;;;12.11;100.00
44103;BME280;29769;42.178;24.742;2023-09-19T04:02:23;100010.16;;;12.13;100.00
44103;BME280;29769;42.178;24.742;2023-09-19T04:05:09;100011.84;;;12.19;100.00
44103;BME280;29769;42.178;24.742;2023-09-19T04:07:55;100010.78;;;12.29;100.00
44103;BME280;29769;42.178;24.742;2023-09-19T04:10:43;100015.06;;;12.36;100.00
44103;BME280;29769;42.178;24.742;2023-09-19T04:13:27;100012.25;;;12.45;100.00
44103;BME280;29769;42.178;24.742;2023-09-19T04:16:12;100019.19;;;12.52;100.00
44103;BME280;29769;42.178;24.742;2023-09-19T04:18:58;100017.25;;;12.60;100.00
44103;BME280;29769;42.178;24.742;2023-09-19T04:21:43;100017.09;;;12.69;100.00
44103;BME280;29769;42.178;24.742;2023-09-19T04:24:27;100009.88;;;12.79;100.00
44103;BME280;29769;42.178;24.742;2023-09-19T04:27:13;100007.91;;;12.90;100.00
44103;BME280;29769;42.178;24.742;2023-09-19T04:29:59;100015.59;;;13.01;100.00
44103;BME280;29769;42.178;24.742;2023-09-19T04:32:44;100018.06;;;13.08;100.00
44103;BME280;29769;42.178;24.742;2023-09-19T04:35:28;100021.50;;;13.16;100.00
44103;BME280;29769;42.178;24.742;2023-09-19T04:38:15;100024.84;;;13.24;100.00
44103;BME280;29769;42.178;24.742;2023-09-19T04:41:00;100008.78;;;13.33;100.00
44103;BME280;29769;42.178;24.742;2023-09-19T04:43:45;100010.19;;;13.50;100.00
44103;BME280;29769;42.178;24.742;2023-09-19T04:46:29;100016.00;;;13.67;100.00
44103;BME280;29769;42.178;24.742;2023-09-19T04:49:14;100012.97;;;13.82;100.00
44103;BME280;29769;42.178;24.742;2023-09-19T04:51:58;100018.66;;;14.02;100.00
44103;BME280;29769;42.178;24.742;2023-09-19T04:54:43;100008.44;;;14.24;100.00
44103;BME280;29769;42.178;24.742;2023-09-19T04:57:27;100015.59;;;14.54;100.00
44103;BME280;29769;42.178;24.742;2023-09-19T05:00:16;100012.69;;;14.97;100.00
44103;BME280;29769;42.178;24.742;2023-09-19T05:03:03;100015.00;;;15.39;100.00
44103;BME280;29769;42.178;24.742;2023-09-19T05:05:48;100018.06;;;15.84;100.00
44103;BME280;29769;42.178;24.742;2023-09-19T05:08:33;100010.28;;;16.06;100.00
44103;BME280;29769;42.178;24.742;2023-09-19T05:11:21;100016.78;;;16.23;100.00
44103;BME280;29769;42.178;24.742;2023-09-19T05:14:06;100006.91;;;16.27;100.00
44103;BME280;29769;42.178;24.742;2023-09-19T05:16:50;100019.63;;;16.43;100.00
44103;BME280;29769;42.178;24.742;2023-09-19T05:19:35;100021.63;;;16.37;100.00
44103;BME280;29769;42.178;24.742;2023-09-19T05:22:21;100020.19;;;16.53;100.00
44103;BME280;29769;42.178;24.742;2023-09-19T05:25:06;100024.91;;;16.71;100.00
44103;BME280;29769;42.178;24.742;2023-09-19T05:27:53;100022.78;;;17.06;100.00
44103;BME280;29769;42.178;24.742;2023-09-19T05:30:37;100022.59;;;17.10;100.00
44103;BME280;29769;42.178;24.742;2023-09-19T05:33:25;100023.25;;;17.17;100.00
44103;BME280;29769;42.178;24.742;2023-09-19T05:36:11;100024.94;;;17.43;100.00
44103;BME280;29769;42.178;24.742;2023-09-19T05:38:56;100018.34;;;17.76;100.00
44103;BME280;29769;42.178;24.742;2023-09-19T05:41:40;100025.06;;;17.63;100.00
44103;BME280;29769;42.178;24.742;2023-09-19T05:44:28;100023.72;;;17.74;100.00
44103;BME280;29769;42.178;24.742;2023-09-19T05:47:12;100032.47;;;18.00;100.00
44103;BME280;29769;42.178;24.742;2023-09-19T05:49:57;100033.00;;;17.86;100.00
44103;BME280;29769;42.178;24.742;2023-09-19T05:52:42;100031.16;;;18.10;100.00
44103;BME280;29769;42.178;24.742;2023-09-19T05:55:28;100027.50;;;18.34;100.00
44103;BME280;29769;42.178;24.742;2023-09-19T05:58:14;100016.78;;;18.98;100.00
44103;BME280;29769;42.178;24.742;2023-09-19T06:00:59;100016.03;;;18.94;100.00
44103;BME280;29769;42.178;24.742;2023-09-19T06:03:43;100015.53;;;19.25;100.00
44103;BME280;29769;42.178;24.742;2023-09-19T06:06:27;100007.50;;;19.83;100.00
44103;BME280;29769;42.178;24.742;2023-09-19T06:09:12;99998.47;;;19.85;100.00
44103;BME280;29769;42.178;24.742;2023-09-19T06:11:56;100008.94;;;20.62;100.00
44103;BME280;29769;42.178;24.742;2023-09-19T06:14:42;99997.47;;;21.10;100.00
44103;BME280;29769;42.178;24.742;2023-09-19T06:17:26;100007.91;;;20.64;100.00
44103;BME280;29769;42.178;24.742;2023-09-19T06:20:12;100008.78;;;20.48;100.00
44103;BME280;29769;42.178;24.742;2023-09-19T06:23:00;100007.03;;;20.47;100.00
44103;BME280;29769;42.178;24.742;2023-09-19T06:25:46;100005.66;;;21.07;100.00
44103;BME280;29769;42.178;24.742;2023-09-19T06:28:31;100008.66;;;21.01;100.00
44103;BME280;29769;42.178;24.742;2023-09-19T06:31:17;99993.63;;;21.15;100.00
44103;BME280;29769;42.178;24.742;2023-09-19T06:34:03;99999.47;;;21.39;100.00
44103;BME280;29769;42.178;24.742;2023-09-19T06:36:47;99997.38;;;22.68;100.00
44103;BME280;29769;42.178;24.742;2023-09-19T06:39:32;99994.44;;;23.45;100.00
44103;BME280;29769;42.178;24.742;2023-09-19T06:42:17;99990.78;;;23.74;100.00
44103;BME280;29769;42.178;24.742;2023-09-19T06:45:02;99993.09;;;23.66;93.40
44103;BME280;29769;42.178;24.742;2023-09-19T06:47:50;99983.09;;;23.40;96.00
44103;BME280;29769;42.178;24.742;2023-09-19T06:50:35;99979.16;;;23.74;93.17
44103;BME280;29769;42.178;24.742;2023-09-19T06:53:20;99990.09;;;24.12;91.56
44103;BME280;29769;42.178;24.742;2023-09-19T06:56:06;99991.47;;;24.71;88.38
44103;BME280;29769;42.178;24.742;2023-09-19T06:58:51;99986.94;;;23.22;95.61
44103;BME280;29769;42.178;24.742;2023-09-19T07:01:35;99991.91;;;22.99;98.75
44103;BME280;29769;42.178;24.742;2023-09-19T07:04:21;99990.25;;;23.82;94.17
44103;BME280;29769;42.178;24.742;2023-09-19T07:07:06;99986.28;;;24.55;90.29
44103;BME280;29769;42.178;24.742;2023-09-19T07:09:53;99982.72;;;25.07;86.36
44103;BME280;29769;42.178;24.742;2023-09-19T07:12:38;99980.13;;;24.53;87.21
44103;BME280;29769;42.178;24.742;2023-09-19T07:15:23;99980.00;;;24.15;89.83
44103;BME280;29769;42.178;24.742;2023-09-19T07:18:09;99979.94;;;24.56;89.09
44103;BME280;29769;42.178;24.742;2023-09-19T07:20:58;99970.00;;;24.44;88.91
44103;BME280;29769;42.178;24.742;2023-09-19T07:23:49;99984.63;;;24.92;87.20
44103;BME280;29769;42.178;24.742;2023-09-19T07:26:34;99976.44;;;25.93;84.09
44103;BME280;29769;42.178;24.742;2023-09-19T07:29:18;99973.16;;;26.83;69.81
44103;BME280;29769;42.178;24.742;2023-09-19T07:32:03;99968.09;;;27.58;65.09
44103;BME280;29769;42.178;24.742;2023-09-19T07:34:47;99968.19;;;28.86;55.90
44103;BME280;29769;42.178;24.742;2023-09-19T07:37:32;99957.59;;;30.14;48.08
44103;BME280;29769;42.178;24.742;2023-09-19T07:40:20;99951.34;;;30.23;45.90
44103;BME280;29769;42.178;24.742;2023-09-19T07:43:05;99948.19;;;31.31;42.35
44103;BME280;29769;42.178;24.742;2023-09-19T07:45:51;99941.03;;;31.30;41.87
44103;BME280;29769;42.178;24.742;2023-09-19T07:48:35;99947.16;;;30.86;41.90
44103;BME280;29769;42.178;24.742;2023-09-19T07:51:20;99942.81;;;31.59;40.10
44103;BME280;29769;42.178;24.742;2023-09-19T07:54:05;99947.25;;;32.05;38.93
44103;BME280;29769;42.178;24.742;2023-09-19T07:56:50;99928.34;;;33.18;36.51
44103;BME280;29769;42.178;24.742;2023-09-19T07:59:34;99928.09;;;34.29;34.29
44103;BME280;29769;42.178;24.742;2023-09-19T08:02:19;99915.44;;;35.01;32.67
44103;BME280;29769;42.178;24.742;2023-09-19T08:05:04;99912.88;;;34.34;33.18
44103;BME280;29769;42.178;24.742;2023-09-19T08:07:55;99910.63;;;35.03;32.39
44103;BME280;29769;42.178;24.742;2023-09-19T08:10:41;99923.81;;;36.24;30.70
44103;BME280;29769;42.178;24.742;2023-09-19T08:13:27;99915.78;;;36.68;29.92
44103;BME280;29769;42.178;24.742;2023-09-19T08:16:12;99916.72;;;37.42;28.91
44103;BME280;29769;42.178;24.742;2023-09-19T08:18:57;99910.81;;;37.01;28.45
44103;BME280;29769;42.178;24.742;2023-09-19T08:21:41;99914.94;;;35.91;29.41
44103;BME280;29769;42.178;24.742;2023-09-19T08:24:30;99908.28;;;36.17;28.51
44103;BME280;29769;42.178;24.742;2023-09-19T08:27:14;99898.66;;;37.33;27.41
44103;BME280;29769;42.178;24.742;2023-09-19T08:30:02;99901.03;;;36.69;27.72
44103;BME280;29769;42.178;24.742;2023-09-19T08:32:47;99905.91;;;36.36;28.01
44103;BME280;29769;42.178;24.742;2023-09-19T08:35:32;99900.59;;;36.35;27.96
44103;BME280;29769;42.178;24.742;2023-09-19T08:38:17;99895.91;;;35.28;28.96
44103;BME280;29769;42.178;24.742;2023-09-19T08:41:05;99890.78;;;35.09;29.38
44103;BME280;29769;42.178;24.742;2023-09-19T08:43:50;99886.09;;;34.38;30.44
44103;BME280;29769;42.178;24.742;2023-09-19T08:46:36;99877.50;;;35.06;29.44
44103;BME280;29769;42.178;24.742;2023-09-19T08:52:55;99871.16;;;36.37;27.74
44103;BME280;29769;42.178;24.742;2023-09-19T08:55:14;99871.72;;;36.84;27.07
44103;BME280;29769;42.178;24.742;2023-09-19T08:58:06;99870.97;;;35.23;28.78
44103;BME280;29769;42.178;24.742;2023-09-19T09:00:52;99868.06;;;35.08;28.97
44103;BME280;29769;42.178;24.742;2023-09-19T09:03:37;99867.22;;;35.86;28.03
44103;BME280;29769;42.178;24.742;2023-09-19T09:06:25;99868.88;;;35.95;27.79
44103;BME280;29769;42.178;24.742;2023-09-19T09:09:10;99863.63;;;37.50;26.72
44103;BME280;29769;42.178;24.742;2023-09-19T09:11:55;99858.00;;;38.08;25.29
44103;BME280;29769;42.178;24.742;2023-09-19T09:14:44;99849.91;;;39.33;24.26
44103;BME280;29769;42.178;24.742;2023-09-19T09:17:29;99851.84;;;40.98;23.06
44103;BME280;29769;42.178;24.742;2023-09-19T09:20:14;99845.50;;;42.06;21.83
44103;BME280;29769;42.178;24.742;2023-09-19T09:22:59;99835.97;;;41.58;21.61
44103;BME280;29769;42.178;24.742;2023-09-19T09:25:50;99842.56;;;42.33;21.16
44103;BME280;29769;42.178;24.742;2023-09-19T09:28:45;99840.44;;;43.57;19.88
44103;BME280;29769;42.178;24.742;2023-09-19T09:31:30;99841.94;;;44.31;19.52
44103;BME280;29769;42.178;24.742;2023-09-19T09:34:14;99826.16;;;44.32;18.98
44103;BME280;29769;42.178;24.742;2023-09-19T09:37:00;99830.34;;;44.34;19.25
44103;BME280;29769;42.178;24.742;2023-09-19T09:39:54;99829.28;;;45.16;18.44
44103;BME280;29769;42.178;24.742;2023-09-19T09:42:40;99831.47;;;44.80;18.30
44103;BME280;29769;42.178;24.742;2023-09-19T09:45:25;99822.16;;;43.20;19.71
44103;BME280;29769;42.178;24.742;2023-09-19T09:48:24;99819.94;;;42.67;20.42
44103;BME280;29769;42.178;24.742;2023-09-19T09:51:16;99808.50;;;42.82;19.80
44103;BME280;29769;42.178;24.742;2023-09-19T09:54:13;99806.03;;;43.65;19.09
44103;BME280;29769;42.178;24.742;2023-09-19T09:57:04;99801.41;;;40.06;22.22
44103;BME280;29769;42.178;24.742;2023-09-19T09:59:58;99797.91;;;39.10;23.39
44103;BME280;29769;42.178;24.742;2023-09-19T10:03:00;99795.44;;;37.89;24.65
44103;BME280;29769;42.178;24.742;2023-09-19T10:05:44;99796.31;;;37.68;24.81
44103;BME280;29769;42.178;24.742;2023-09-19T10:08:29;99794.31;;;37.26;25.44
44103;BME280;29769;42.178;24.742;2023-09-19T10:11:15;99795.03;;;37.71;25.45
44103;BME280;29769;42.178;24.742;2023-09-19T10:14:00;99787.53;;;38.43;23.92
44103;BME280;29769;42.178;24.742;2023-09-19T10:16:51;99792.97;;;38.99;23.43
44103;BME280;29769;42.178;24.742;2023-09-19T10:22:22;99785.00;;;38.20;23.98
44103;BME280;29769;42.178;24.742;2023-09-19T10:25:07;99779.69;;;39.63;23.01
44103;BME280;29769;42.178;24.742;2023-09-19T10:27:53;99785.06;;;41.47;21.52
44103;BME280;29769;42.178;24.742;2023-09-19T10:30:43;99772.44;;;42.21;20.53
44103;BME280;29769;42.178;24.742;2023-09-19T10:33:29;99766.53;;;42.17;20.25
44103;BME280;29769;42.178;24.742;2023-09-19T10:36:20;99769.78;;;42.57;20.57
44103;BME280;29769;42.178;24.742;2023-09-19T10:39:09;99768.06;;;39.61;22.39
44103;BME280;29769;42.178;24.742;2023-09-19T10:41:56;99757.63;;;39.37;22.77
44103;BME280;29769;42.178;24.742;2023-09-19T10:44:43;99749.91;;;39.26;22.77
44103;BME280;29769;42.178;24.742;2023-09-19T10:47:29;99744.25;;;41.11;21.49
44103;BME280;29769;42.178;24.742;2023-09-19T10:50:21;99734.81;;;42.44;20.23
44103;BME280;29769;42.178;24.742;2023-09-19T10:53:06;99733.78;;;43.78;19.14
44103;BME280;29769;42.178;24.742;2023-09-19T10:55:55;99730.41;;;44.64;18.28
44103;BME280;29769;42.178;24.742;2023-09-19T10:58:42;99730.97;;;45.01;17.97
44103;BME280;29769;42.178;24.742;2023-09-19T11:01:47;99729.59;;;45.15;17.83
44103;BME280;29769;42.178;24.742;2023-09-19T11:04:35;99725.47;;;44.43;18.16
44103;BME280;29769;42.178;24.742;2023-09-19T11:07:20;99725.41;;;45.01;17.80
44103;BME280;29769;42.178;24.742;2023-09-19T11:10:05;99721.81;;;44.77;18.09
44103;BME280;29769;42.178;24.742;2023-09-19T11:12:54;99716.22;;;45.85;17.21
44103;BME280;29769;42.178;24.742;2023-09-19T11:16:03;99707.47;;;40.53;21.04
44103;BME280;29769;42.178;24.742;2023-09-19T11:18:51;99701.38;;;40.05;21.56
44103;BME280;29769;42.178;24.742;2023-09-19T11:24:28;99696.81;;;42.15;20.06
44103;BME280;29769;42.178;24.742;2023-09-19T11:27:15;99698.66;;;43.19;19.16
44103;BME280;29769;42.178;24.742;2023-09-19T11:36:15;99678.09;;;39.75;21.60
44103;BME280;29769;42.178;24.742;2023-09-19T11:39:01;99675.97;;;39.03;22.71
44103;BME280;29769;42.178;24.742;2023-09-19T11:41:52;99672.97;;;39.52;21.84
44103;BME280;29769;42.178;24.742;2023-09-19T11:44:43;99634.91;;;38.88;22.37
44103;BME280;29769;42.178;24.742;2023-09-19T11:47:28;99666.88;;;39.02;22.40
44103;BME280;29769;42.178;24.742;2023-09-19T11:50:17;99654.44;;;39.13;22.15
44103;BME280;29769;42.178;24.742;2023-09-19T11:53:04;99657.41;;;39.18;22.26
44103;BME280;29769;42.178;24.742;2023-09-19T11:55:50;99655.13;;;38.81;22.78
44103;BME280;29769;42.178;24.742;2023-09-19T11:58:35;99649.88;;;38.79;22.99
44103;BME280;29769;42.178;24.742;2023-09-19T12:01:29;99644.13;;;38.74;22.94
44103;BME280;29769;42.178;24.742;2023-09-19T12:04:14;99635.59;;;38.56;22.89
44103;BME280;29769;42.178;24.742;2023-09-19T12:07:00;99636.28;;;39.32;22.24
44103;BME280;29769;42.178;24.742;2023-09-19T12:09:49;99627.44;;;39.95;21.69
44103;BME280;29769;42.178;24.742;2023-09-19T12:12:34;99623.72;;;40.61;21.09
44103;BME280;29769;42.178;24.742;2023-09-19T12:15:22;99621.28;;;39.87;21.47
44103;BME280;29769;42.178;24.742;2023-09-19T12:18:27;99623.38;;;38.65;22.06
44103;BME280;29769;42.178;24.742;2023-09-19T12:24:13;99619.25;;;38.07;23.10
44103;BME280;29769;42.178;24.742;2023-09-19T12:27:01;99617.44;;;38.20;22.79
44103;BME280;29769;42.178;24.742;2023-09-19T12:32:36;99615.72;;;36.64;24.10
44103;BME280;29769;42.178;24.742;2023-09-19T12:35:27;99608.78;;;35.65;25.15
44103;BME280;29769;42.178;24.742;2023-09-19T12:38:22;99615.53;;;36.22;24.92
44103;BME280;29769;42.178;24.742;2023-09-19T12:41:08;99606.22;;;36.81;24.95
44103;BME280;29769;42.178;24.742;2023-09-19T12:43:54;99604.88;;;36.92;24.71
44103;BME280;29769;42.178;24.742;2023-09-19T12:46:39;99593.28;;;36.25;25.32
44103;BME280;29769;42.178;24.742;2023-09-19T12:49:23;99598.25;;;35.09;26.72
44103;BME280;29769;42.178;24.742;2023-09-19T12:52:08;99597.84;;;34.97;26.79
44103;BME280;29769;42.178;24.742;2023-09-19T12:54:54;99590.03;;;34.86;26.77
44103;BME280;29769;42.178;24.742;2023-09-19T12:57:39;99589.72;;;36.45;25.57
44103;BME280;29769;42.178;24.742;2023-09-19T13:00:31;99583.75;;;36.71;24.66
44103;BME280;29769;42.178;24.742;2023-09-19T13:03:24;99589.59;;;37.47;23.93
44103;BME280;29769;42.178;24.742;2023-09-19T13:06:09;99587.44;;;37.42;24.57
44103;BME280;29769;42.178;24.742;2023-09-19T13:09:07;99582.53;;;36.59;25.03
44103;BME280;29769;42.178;24.742;2023-09-19T13:11:52;99585.00;;;35.66;25.77
44103;BME280;29769;42.178;24.742;2023-09-19T13:14:38;99584.19;;;34.97;26.56
44103;BME280;29769;42.178;24.742;2023-09-19T13:17:25;99585.56;;;34.70;26.97
44103;BME280;29769;42.178;24.742;2023-09-19T13:20:32;99579.25;;;34.70;26.90
44103;BME280;29769;42.178;24.742;2023-09-19T13:23:26;99567.22;;;35.02;25.96
44103;BME280;29769;42.178;24.742;2023-09-19T13:26:11;99576.53;;;35.53;25.50
44103;BME280;29769;42.178;24.742;2023-09-19T13:28:55;99577.19;;;35.78;24.90
44103;BME280;29769;42.178;24.742;2023-09-19T13:31:40;99564.19;;;37.17;23.97
44103;BME280;29769;42.178;24.742;2023-09-19T13:34:26;99565.16;;;38.48;22.55
44103;BME280;29769;42.178;24.742;2023-09-19T13:37:11;99554.88;;;38.22;22.69
44103;BME280;29769;42.178;24.742;2023-09-19T13:39:57;99556.28;;;39.60;21.66
44103;BME280;29769;42.178;24.742;2023-09-19T13:42:44;99548.53;;;40.27;20.55
44103;BME280;29769;42.178;24.742;2023-09-19T13:45:28;99553.69;;;39.71;20.99
44103;BME280;29769;42.178;24.742;2023-09-19T13:48:14;99549.25;;;39.04;21.53
44103;BME280;29769;42.178;24.742;2023-09-19T13:50:59;99545.13;;;37.85;22.67
44103;BME280;29769;42.178;24.742;2023-09-19T13:53:44;99534.66;;;37.61;23.08
44103;BME280;29769;42.178;24.742;2023-09-19T13:56:29;99535.66;;;36.18;23.91
44103;BME280;29769;42.178;24.742;2023-09-19T13:59:15;99533.97;;;36.53;24.02
44103;BME280;29769;42.178;24.742;2023-09-19T14:02:00;99534.03;;;36.74;24.12
44103;BME280;29769;42.178;24.742;2023-09-19T14:04:45;99530.50;;;36.80;23.68
44103;BME280;29769;42.178;24.742;2023-09-19T14:07:29;99523.44;;;36.71;23.65
44103;BME280;29769;42.178;24.742;2023-09-19T14:10:14;99516.47;;;36.90;23.41
44103;BME280;29769;42.178;24.742;2023-09-19T14:12:59;99525.47;;;35.97;24.33
44103;BME280;29769;42.178;24.742;2023-09-19T14:15:43;99523.91;;;35.51;25.10
44103;BME280;29769;42.178;24.742;2023-09-19T14:18:28;99527.91;;;36.22;24.10
44103;BME280;29769;42.178;24.742;2023-09-19T14:21:12;99526.66;;;36.09;24.02
44103;BME280;29769;42.178;24.742;2023-09-19T14:23:59;99529.03;;;36.27;24.14
44103;BME280;29769;42.178;24.742;2023-09-19T14:26:44;99522.59;;;36.71;23.68
44103;BME280;29769;42.178;24.742;2023-09-19T14:29:30;99516.09;;;36.57;23.60
44103;BME280;29769;42.178;24.742;2023-09-19T14:32:14;99518.69;;;36.80;23.27
44103;BME280;29769;42.178;24.742;2023-09-19T14:34:59;99523.94;;;36.75;23.81
44103;BME280;29769;42.178;24.742;2023-09-19T14:37:44;99511.47;;;37.15;22.89
44103;BME280;29769;42.178;24.742;2023-09-19T14:40:30;99513.34;;;36.93;23.29
44103;BME280;29769;42.178;24.742;2023-09-19T14:43:15;99518.81;;;36.72;23.22
44103;BME280;29769;42.178;24.742;2023-09-19T14:46:03;99511.84;;;35.89;24.40
44103;BME280;29769;42.178;24.742;2023-09-19T14:48:48;99518.44;;;35.51;24.66
44103;BME280;29769;42.178;24.742;2023-09-19T14:51:33;99517.94;;;34.64;25.27
44103;BME280;29769;42.178;24.742;2023-09-19T14:54:17;99520.44;;;33.57;26.27
44103;BME280;29769;42.178;24.742;2023-09-19T14:57:03;99524.94;;;32.35;28.64
44103;BME280;29769;42.178;24.742;2023-09-19T14:59:52;99526.63;;;31.60;28.98
44103;BME280;29769;42.178;24.742;2023-09-19T15:02:37;99527.22;;;31.03;29.80